Time;durP1;ratioP1;P1;durP2;ratioP2;P2;SDS_P1;SDS_P2;PMS_P1;PMS_P2;Temp;Humidity;BMP_temperature;BMP_pressure;BME280_temperature;BME280_humidity;BME280_pressure;Samples;Min_cycle;Max_cycle;Signal;HPM_P1;HPM_P2
2021/01/30 00:06:12;;;;;;;54.57;28.80;;;;;;;-5.12;79.21;97534.78;510826;1102;114364;-67
2021/01/30 00:16:16;;;;;;;42.35;23.70;;;;;;;-5.04;79.30;97523.43;510847;1101;115027;-64
2021/01/30 00:26:20;;;;;;;45.75;23.80;;;;;;;-5.02;79.59;97531.89;510889;1102;115322;-65
2021/01/30 00:36:24;;;;;;;45.50;24.93;;;;;;;-4.94;78.94;97527.35;510847;1102;114358;-66
2021/01/30 00:46:28;;;;;;;42.00;22.70;;;;;;;-4.90;79.54;97526.38;510990;1102;115245;-65
2021/01/30 00:56:32;;;;;;;47.53;24.70;;;;;;;-4.84;79.52;97538.13;511003;1102;114345;-66
2021/01/30 01:06:37;;;;;;;43.97;23.07;;;;;;;-4.74;79.72;97533.52;510979;1102;115300;-65
2021/01/30 01:16:41;;;;;;;36.50;21.00;;;;;;;-4.67;78.75;97534.98;511204;1102;114375;-66
2021/01/30 01:26:46;;;;;;;35.70;22.33;;;;;;;-4.60;79.07;97536.41;510893;1102;115627;-66
2021/01/30 01:36:58;;;;;;;28.73;19.13;;;;;;;-4.54;78.08;97519.98;510452;1101;114770;-63
2021/01/30 01:47:04;;;;;;;34.13;19.63;;;;;;;-4.60;79.42;97515.10;501775;1102;10001717;-60
2021/01/30 01:57:13;;;;;;;34.33;20.57;;;;;;;-4.66;78.49;97503.35;509980;1102;114713;-60
2021/01/30 02:07:17;;;;;;;42.30;23.10;;;;;;;-4.67;78.88;97469.20;510347;1102;114278;-61
2021/01/30 02:17:40;;;;;;;37.77;21.00;;;;;;;-4.64;79.47;97468.27;510612;1102;114283;-60
2021/01/30 02:28:10;;;;;;;31.60;21.77;;;;;;;-4.58;78.85;97467.21;510655;1102;114294;-60
2021/01/30 02:38:19;;;;;;;37.10;22.53;;;;;;;-4.60;79.41;97469.81;510525;1102;115086;-60
2021/01/30 02:48:30;;;;;;;33.17;20.87;;;;;;;-4.53;79.06;97465.30;510776;1102;114268;-61
2021/01/30 02:58:39;;;;;;;36.63;20.63;;;;;;;-4.54;79.13;97459.36;510607;1100;114252;-61
2021/01/30 03:08:50;;;;;;;36.30;20.57;;;;;;;-4.48;79.30;97460.01;510636;1102;114980;-61
2021/01/30 03:18:56;;;;;;;29.37;17.97;;;;;;;-4.42;78.63;97454.67;510695;1101;114578;-60
2021/01/30 03:28:59;;;;;;;;;;;;;;;-4.36;79.35;97439.05;514502;1101;114714;-61
2021/01/30 03:39:06;;;;;;;28.03;18.20;;;;;;;-4.34;77.81;97439.00;510729;1102;100137;-60
2021/01/30 03:49:10;;;;;;;25.90;16.80;;;;;;;-4.35;77.71;97443.27;510993;1102;115795;-60
2021/01/30 03:59:16;;;;;;;27.73;16.80;;;;;;;-4.35;78.31;97435.59;510851;1101;114976;-61
2021/01/30 04:09:19;;;;;;;;;;;;;;;-4.43;78.37;97430.77;510814;1102;114293;-61
2021/01/30 04:19:23;;;;;;;36.90;21.47;;;;;;;-4.57;78.92;97421.02;511049;1101;101324;-60
2021/01/30 04:29:27;;;;;;;29.27;19.27;;;;;;;-4.61;79.29;97409.23;510798;1102;115724;-60
2021/01/30 04:39:31;;;;;;;27.43;16.87;;;;;;;-4.65;78.42;97403.39;510841;1102;115097;-60
2021/01/30 04:49:52;;;;;;;35.03;19.83;;;;;;;-4.63;78.01;97400.78;510835;1102;114534;-60
2021/01/30 05:00:09;;;;;;;29.10;18.60;;;;;;;-4.57;78.88;97400.53;510927;1102;114958;-61
2021/01/30 05:10:17;;;;;;;32.27;18.40;;;;;;;-4.50;79.48;97385.80;510942;1102;114418;-61
2021/01/30 05:20:33;;;;;;;28.15;17.50;;;;;;;-4.50;78.64;97378.92;510952;1102;114339;-61
2021/01/30 05:30:52;;;;;;;31.70;18.93;;;;;;;-4.46;79.36;97373.67;510585;1102;115125;-61
2021/01/30 05:41:02;;;;;;;32.07;16.60;;;;;;;-4.43;78.05;97361.59;510782;1102;114241;-63
2021/01/30 05:51:13;;;;;;;32.90;18.80;;;;;;;-4.41;78.69;97364.92;510408;1101;114249;-60
2021/01/30 06:01:24;;;;;;;30.97;18.10;;;;;;;-4.34;78.15;97372.37;510866;1102;115339;-61
2021/01/30 06:11:39;;;;;;;27.53;18.67;;;;;;;-4.34;77.90;97364.69;510861;1102;114270;-61
2021/01/30 06:21:45;;;;;;;28.43;18.93;;;;;;;-4.27;79.41;97379.76;510703;1101;115036;-59
2021/01/30 06:31:50;;;;;;;32.30;17.30;;;;;;;-4.24;78.65;97376.25;511103;1102;114267;-60
2021/01/30 06:41:57;;;;;;;27.63;16.33;;;;;;;-4.23;79.32;97368.48;510875;1102;115239;-61
2021/01/30 06:52:08;;;;;;;32.97;19.47;;;;;;;-4.19;79.26;97361.50;510736;1102;114310;-59
2021/01/30 07:02:18;;;;;;;34.77;21.73;;;;;;;-4.22;78.66;97367.58;510751;1102;115194;-60
2021/01/30 07:12:30;;;;;;;33.00;20.27;;;;;;;-4.18;78.86;97380.30;510883;1101;114349;-61
2021/01/30 07:22:48;;;;;;;33.97;20.03;;;;;;;-4.09;78.92;97391.00;510705;1102;114381;-59
2021/01/30 07:33:00;;;;;;;30.70;19.00;;;;;;;-4.14;79.62;97389.52;510891;1102;114518;-61
2021/01/30 07:43:11;;;;;;;34.13;22.93;;;;;;;-4.04;80.09;97379.72;510714;1102;114313;-60
2021/01/30 07:53:17;;;;;;;35.35;21.85;;;;;;;-3.99;79.82;97383.77;510908;1102;114203;-61
2021/01/30 08:03:39;;;;;;;31.25;20.65;;;;;;;-3.95;79.82;97387.89;510829;1102;114320;-61
2021/01/30 08:13:50;;;;;;;35.47;21.10;;;;;;;-3.87;80.49;97381.59;511007;1102;114279;-60
2021/01/30 08:24:02;;;;;;;35.27;20.57;;;;;;;-3.71;80.81;97387.78;511057;1102;115549;-61
2021/01/30 08:34:11;;;;;;;37.87;21.87;;;;;;;-3.59;80.02;97398.42;511068;1102;115304;-61
2021/01/30 08:44:34;;;;;;;35.80;24.73;;;;;;;-3.46;80.10;97422.67;510995;1101;115417;-61
2021/01/30 08:54:41;;;;;;;45.93;28.47;;;;;;;-3.47;80.90;97425.28;511174;1101;114727;-61
2021/01/30 09:05:01;;;;;;;42.03;26.87;;;;;;;-3.50;80.39;97430.55;510843;1102;114575;-60
2021/01/30 09:15:07;;;;;;;45.83;28.43;;;;;;;-3.46;81.11;97450.89;511169;1102;114311;-61
2021/01/30 09:25:16;;;;;;;;;;;;;;;-3.37;80.08;97477.90;510990;1101;114388;-62
2021/01/30 09:35:25;;;;;;;42.93;24.97;;;;;;;-3.29;79.93;97482.70;511000;1102;99946;-61
2021/01/30 09:45:31;;;;;;;41.85;25.90;;;;;;;-3.13;80.23;97490.61;510882;1102;114180;-61
2021/01/30 09:55:35;;;;;;;41.20;25.87;;;;;;;-2.84;80.07;97519.36;510912;1102;114795;-60
2021/01/30 10:05:39;;;;;;;38.43;24.37;;;;;;;-2.59;80.31;97531.14;510757;1102;114654;-60
2021/01/30 10:15:51;;;;;;;28.10;17.85;;;;;;;-2.55;79.78;97540.38;511335;1102;114827;-61
2021/01/30 10:26:09;;;;;;;29.40;19.25;;;;;;;-2.42;79.45;97564.67;511052;1102;114300;-61
2021/01/30 10:36:14;;;;;;;30.23;20.37;;;;;;;-2.13;79.72;97562.52;513175;1102;115239;-61
2021/01/30 10:46:31;;;;;;;29.03;19.80;;;;;;;-2.08;79.31;97556.33;493439;1102;10001349;-61
2021/01/30 10:56:36;;;;;;;31.87;19.93;;;;;;;-1.80;79.31;97568.77;510488;1102;114940;-60
2021/01/30 11:06:45;;;;;;;34.60;23.33;;;;;;;-1.59;79.00;97576.39;510530;1102;115825;-60
2021/01/30 11:16:49;;;;;;;37.93;25.03;;;;;;;-1.24;78.52;97585.94;510544;1102;115118;-60
2021/01/30 11:26:53;;;;;;;32.53;22.97;;;;;;;-1.05;77.97;97604.73;510522;1101;114773;-61
2021/01/30 11:36:58;;;;;;;35.67;23.53;;;;;;;-0.59;78.24;97609.36;510627;1102;113991;-60
2021/01/30 11:47:02;;;;;;;30.43;21.17;;;;;;;-0.67;76.72;97614.06;510357;1102;114370;-61
2021/01/30 11:57:06;;;;;;;33.23;22.63;;;;;;;-0.74;77.00;97625.61;510574;1102;114083;-61
2021/01/30 12:07:10;;;;;;;35.80;24.67;;;;;;;-0.85;77.02;97637.27;510550;1102;114487;-61
2021/01/30 12:17:15;;;;;;;34.85;23.95;;;;;;;-0.78;77.06;97649.84;510624;1102;114273;-61
2021/01/30 12:27:22;;;;;;;35.70;23.30;;;;;;;-0.97;76.80;97660.21;510356;1102;114063;-61
2021/01/30 12:37:25;;;;;;;;;;;;;;;-1.12;76.38;97662.63;510448;1102;114101;-61
2021/01/30 12:47:31;;;;;;;35.77;23.27;;;;;;;-1.42;77.76;97679.44;509984;1101;102258;-61
2021/01/30 12:57:47;;;;;;;38.43;21.43;;;;;;;-1.58;78.23;97688.74;510131;1102;114536;-67
2021/01/30 13:07:51;;;;;;;33.50;19.23;;;;;;;-1.53;77.80;97701.41;510762;1101;114523;-65
2021/01/30 13:17:55;;;;;;;32.15;18.15;;;;;;;-1.75;78.31;97710.08;510578;1102;115135;-63
2021/01/30 13:27:59;;;;;;;26.23;15.27;;;;;;;-1.86;78.35;97715.71;510597;1102;114153;-67
2021/01/30 13:38:03;;;;;;;19.97;13.07;;;;;;;-1.75;78.74;97717.80;514230;1102;115417;-66
2021/01/30 13:48:10;;;;;;;13.65;9.08;;;;;;;-1.94;78.31;97735.78;510699;1101;114335;-68
2021/01/30 13:58:14;;;;;;;15.95;10.25;;;;;;;-2.05;78.58;97759.40;510881;1102;113983;-65
2021/01/30 14:08:18;;;;;;;19.50;10.70;;;;;;;-2.07;78.84;97774.06;510821;1102;114250;-64
2021/01/30 14:18:22;;;;;;;16.20;10.70;;;;;;;-2.16;79.23;97777.84;511059;1102;114577;-63
2021/01/30 14:28:26;;;;;;;15.40;10.17;;;;;;;-2.34;79.25;97799.99;510987;1102;114244;-63
2021/01/30 14:38:30;;;;;;;12.85;7.25;;;;;;;-2.46;79.25;97807.30;501973;1102;10001304;-62
2021/01/30 14:48:34;;;;;;;16.93;9.83;;;;;;;-2.53;79.61;97813.59;510586;1102;115196;-68
2021/01/30 14:58:38;;;;;;;15.90;10.35;;;;;;;-2.62;80.03;97821.66;510668;1102;114373;-67
2021/01/30 15:08:45;;;;;;;17.60;10.43;;;;;;;-2.66;80.70;97831.22;510484;1101;114554;-66
2021/01/30 15:18:49;;;;;;;13.40;8.80;;;;;;;-2.66;80.89;97841.50;510409;1102;114269;-65
2021/01/30 15:28:53;;;;;;;13.90;9.63;;;;;;;-2.63;80.75;97849.08;510369;1102;113981;-61
2021/01/30 15:38:57;;;;;;;17.43;10.03;;;;;;;-2.70;81.17;97863.08;509848;1102;114029;-61
2021/01/30 15:49:01;;;;;;;20.10;12.27;;;;;;;-2.86;81.22;97863.62;510096;1102;115256;-61
2021/01/30 15:59:05;;;;;;;14.97;9.33;;;;;;;-2.80;81.25;97884.86;510425;1102;114953;-62
2021/01/30 16:09:10;;;;;;;15.50;10.87;;;;;;;-2.79;81.78;97895.06;510427;1102;114429;-68
2021/01/30 16:19:15;;;;;;;15.23;9.57;;;;;;;-2.82;81.94;97901.17;510782;1101;114432;-62
2021/01/30 16:29:22;;;;;;;10.53;7.43;;;;;;;-2.94;81.07;97901.62;510536;1102;113957;-62
2021/01/30 16:39:27;;;;;;;9.33;7.13;;;;;;;-3.06;81.49;97930.28;510567;1100;114451;-66
2021/01/30 16:49:31;;;;;;;11.23;7.03;;;;;;;-3.08;81.04;97957.75;510309;1102;114642;-64
2021/01/30 16:59:35;;;;;;;6.83;5.87;;;;;;;-3.13;80.41;97961.33;510130;1101;114584;-65
2021/01/30 17:09:39;;;;;;;8.37;4.13;;;;;;;-3.10;79.58;97975.80;510362;1101;114656;-63
2021/01/30 17:19:43;;;;;;;7.87;5.03;;;;;;;-3.18;78.80;97991.45;510492;1102;113798;-64
2021/01/30 17:29:47;;;;;;;8.20;4.93;;;;;;;-3.21;78.00;98021.55;510345;1102;114435;-64
2021/01/30 17:39:51;;;;;;;13.10;5.47;;;;;;;-3.43;77.79;98033.33;510361;1102;114416;-66
2021/01/30 17:49:55;;;;;;;7.93;4.40;;;;;;;-3.59;78.26;98045.81;510665;1102;114700;-63
2021/01/30 17:59:59;;;;;;;5.70;3.87;;;;;;;-3.66;77.37;98059.73;510550;1102;114035;-62
2021/01/30 18:10:04;;;;;;;6.90;4.07;;;;;;;-3.76;77.61;98064.28;510808;1102;114090;-62
2021/01/30 18:20:10;;;;;;;5.40;3.25;;;;;;;-3.91;76.82;98073.30;510365;1101;113959;-61
2021/01/30 18:30:17;;;;;;;5.93;3.27;;;;;;;-4.01;76.97;98071.89;510596;1102;114512;-63
2021/01/30 18:40:23;;;;;;;6.80;3.60;;;;;;;-4.09;77.06;98090.07;510574;1102;114649;-60
2021/01/30 18:50:30;;;;;;;4.90;3.30;;;;;;;-4.06;76.18;98107.06;510495;1102;114193;-64
2021/01/30 19:00:35;;;;;;;5.90;3.37;;;;;;;-4.04;76.81;98111.27;510699;1102;114129;-62
2021/01/30 19:10:39;;;;;;;5.50;3.60;;;;;;;-4.09;76.14;98101.15;510625;1102;114315;-64
2021/01/30 19:20:43;;;;;;;7.90;3.77;;;;;;;-4.16;75.26;98102.19;510288;1102;114434;-63
2021/01/30 19:30:48;;;;;;;6.03;3.23;;;;;;;-4.33;74.76;98105.22;510323;1102;114074;-62
2021/01/30 19:40:52;;;;;;;7.93;4.37;;;;;;;-4.55;75.55;98104.97;510754;1102;114371;-64
2021/01/30 19:51:00;;;;;;;9.03;5.40;;;;;;;-4.72;76.11;98110.54;510525;1102;114379;-66
2021/01/30 20:01:04;;;;;;;8.13;5.07;;;;;;;-4.96;76.25;98112.84;510382;1102;114721;-64
2021/01/30 20:11:08;;;;;;;8.90;5.30;;;;;;;-5.19;76.27;98119.36;510258;1101;114484;-61
2021/01/30 20:21:12;;;;;;;8.53;4.57;;;;;;;-5.28;76.52;98127.25;510764;1102;115055;-62
2021/01/30 20:31:16;;;;;;;8.90;6.67;;;;;;;-5.25;75.84;98142.52;510458;1102;114872;-62
2021/01/30 20:41:20;;;;;;;8.53;5.73;;;;;;;-5.14;76.50;98147.41;510610;1102;114534;-64
2021/01/30 20:51:24;;;;;;;9.87;5.23;;;;;;;-4.93;75.63;98154.58;510242;1102;114638;-62
2021/01/30 21:01:28;;;;;;;11.83;6.13;;;;;;;-4.83;75.33;98159.48;510798;1102;113916;-60
2021/01/30 21:11:32;;;;;;;14.60;6.10;;;;;;;-4.70;76.37;98171.10;510618;1102;114085;-61
2021/01/30 21:21:37;;;;;;;11.33;6.60;;;;;;;-4.61;75.74;98185.39;510309;1101;115094;-63
2021/01/30 21:31:41;;;;;;;12.60;7.67;;;;;;;-4.57;75.17;98188.72;510559;1102;114611;-62
2021/01/30 21:41:44;;;;;;;13.43;6.67;;;;;;;-4.46;75.96;98196.13;510455;1102;114526;-62
2021/01/30 21:51:48;;;;;;;8.23;4.90;;;;;;;-4.39;75.48;98208.73;510430;1102;115667;-61
2021/01/30 22:01:52;;;;;;;14.73;7.03;;;;;;;-4.33;76.54;98212.05;510540;1102;114888;-62
2021/01/30 22:11:57;;;;;;;9.50;6.10;;;;;;;-4.34;75.90;98208.63;510570;1101;115110;-61
2021/01/30 22:22:01;;;;;;;9.63;5.07;;;;;;;-4.43;75.65;98203.76;510508;1102;113908;-61
2021/01/30 22:32:07;;;;;;;8.40;4.40;;;;;;;-4.55;75.27;98186.96;510553;1100;113934;-62
2021/01/30 22:42:11;;;;;;;8.93;5.60;;;;;;;-4.70;75.25;98178.78;510741;1102;114995;-61
2021/01/30 22:52:15;;;;;;;10.00;4.67;;;;;;;-4.85;75.42;98176.58;510629;1102;115340;-62
2021/01/30 23:02:23;;;;;;;8.20;4.13;;;;;;;-4.96;76.10;98202.45;510435;1102;114928;-62
2021/01/30 23:12:31;;;;;;;8.67;4.30;;;;;;;-4.99;76.32;98208.48;510694;1101;113892;-62
2021/01/30 23:22:40;;;;;;;7.45;4.20;;;;;;;-4.99;76.50;98216.16;510492;1101;114457;-62
2021/01/30 23:32:43;;;;;;;10.97;5.93;;;;;;;-5.04;75.77;98219.70;510490;1102;114381;-62
2021/01/30 23:42:47;;;;;;;10.37;5.80;;;;;;;-5.12;75.96;98237.80;510546;1101;114781;-60
2021/01/30 23:52:51;;;;;;;7.73;3.63;;;;;;;-5.10;76.61;98248.84;510614;1102;115428;-60
